sensor_id;sensor_type;location;lat;lon;timestamp;P1;durP1;ratioP1;P2;durP2;ratioP2
30020;SDS011;16861;52.294;7.760;2024-02-23T00:02:20;3.83;;;0.40;;
30020;SDS011;16861;52.294;7.760;2024-02-23T00:04:47;0.30;;;0.20;;
30020;SDS011;16861;52.294;7.760;2024-02-23T00:07:14;0.13;;;0.10;;
30020;SDS011;16861;52.294;7.760;2024-02-23T00:09:40;1.08;;;0.15;;
30020;SDS011;16861;52.294;7.760;2024-02-23T00:12:07;0.30;;;0.17;;
30020;SDS011;16861;52.294;7.760;2024-02-23T00:14:35;0.47;;;0.30;;
30020;SDS011;16861;52.294;7.760;2024-02-23T00:17:02;0.57;;;0.22;;
30020;SDS011;16861;52.294;7.760;2024-02-23T00:19:30;0.20;;;0.20;;
30020;SDS011;16861;52.294;7.760;2024-02-23T00:21:57;0.40;;;0.20;;
30020;SDS011;16861;52.294;7.760;2024-02-23T00:24:25;0.20;;;0.20;;
30020;SDS011;16861;52.294;7.760;2024-02-23T00:26:52;0.28;;;0.20;;
30020;SDS011;16861;52.294;7.760;2024-02-23T00:29:19;1.08;;;0.40;;
30020;SDS011;16861;52.294;7.760;2024-02-23T00:31:46;0.40;;;0.40;;
30020;SDS011;16861;52.294;7.760;2024-02-23T00:34:13;3.83;;;0.65;;
30020;SDS011;16861;52.294;7.760;2024-02-23T00:36:40;0.40;;;0.40;;
30020;SDS011;16861;52.294;7.760;2024-02-23T00:39:08;0.68;;;0.50;;
30020;SDS011;16861;52.294;7.760;2024-02-23T00:41:35;4.25;;;0.60;;
30020;SDS011;16861;52.294;7.760;2024-02-23T00:44:02;0.50;;;0.50;;
30020;SDS011;16861;52.294;7.760;2024-02-23T00:46:29;0.45;;;0.45;;
30020;SDS011;16861;52.294;7.760;2024-02-23T00:48:56;0.70;;;0.60;;
30020;SDS011;16861;52.294;7.760;2024-02-23T00:51:23;1.60;;;0.60;;
30020;SDS011;16861;52.294;7.760;2024-02-23T00:53:49;0.50;;;0.50;;
30020;SDS011;16861;52.294;7.760;2024-02-23T00:56:16;4.70;;;0.43;;
30020;SDS011;16861;52.294;7.760;2024-02-23T00:58:43;0.60;;;0.60;;
30020;SDS011;16861;52.294;7.760;2024-02-23T01:01:09;1.60;;;0.60;;
30020;SDS011;16861;52.294;7.760;2024-02-23T01:03:36;0.52;;;0.52;;
30020;SDS011;16861;52.294;7.760;2024-02-23T01:06:03;0.60;;;0.60;;
30020;SDS011;16861;52.294;7.760;2024-02-23T01:08:29;0.60;;;0.60;;
30020;SDS011;16861;52.294;7.760;2024-02-23T01:10:57;0.55;;;0.50;;
30020;SDS011;16861;52.294;7.760;2024-02-23T01:13:24;0.60;;;0.60;;
30020;SDS011;16861;52.294;7.760;2024-02-23T01:15:50;0.60;;;0.60;;
30020;SDS011;16861;52.294;7.760;2024-02-23T01:18:18;0.60;;;0.60;;
30020;SDS011;16861;52.294;7.760;2024-02-23T01:20:44;1.10;;;0.70;;
30020;SDS011;16861;52.294;7.760;2024-02-23T01:23:11;0.95;;;0.95;;
30020;SDS011;16861;52.294;7.760;2024-02-23T01:25:37;0.88;;;0.80;;
30020;SDS011;16861;52.294;7.760;2024-02-23T01:28:05;1.52;;;0.73;;
30020;SDS011;16861;52.294;7.760;2024-02-23T01:30:32;1.08;;;0.85;;
30020;SDS011;16861;52.294;7.760;2024-02-23T01:32:59;1.60;;;1.00;;
30020;SDS011;16861;52.294;7.760;2024-02-23T01:35:26;2.05;;;1.23;;
30020;SDS011;16861;52.294;7.760;2024-02-23T01:37:53;1.17;;;1.02;;
30020;SDS011;16861;52.294;7.760;2024-02-23T01:40:20;1.70;;;1.20;;
30020;SDS011;16861;52.294;7.760;2024-02-23T01:42:47;2.67;;;1.50;;
30020;SDS011;16861;52.294;7.760;2024-02-23T01:45:13;3.33;;;1.30;;
30020;SDS011;16861;52.294;7.760;2024-02-23T01:47:40;3.85;;;1.48;;
30020;SDS011;16861;52.294;7.760;2024-02-23T01:50:07;2.28;;;1.85;;
30020;SDS011;16861;52.294;7.760;2024-02-23T01:52:35;2.63;;;1.50;;
30020;SDS011;16861;52.294;7.760;2024-02-23T01:55:03;2.83;;;1.67;;
30020;SDS011;16861;52.294;7.760;2024-02-23T01:57:30;1.90;;;1.40;;
30020;SDS011;16861;52.294;7.760;2024-02-23T02:00:15;3.30;;;1.75;;
30020;SDS011;16861;52.294;7.760;2024-02-23T02:02:44;2.47;;;1.50;;
30020;SDS011;16861;52.294;7.760;2024-02-23T02:05:11;3.03;;;1.45;;
30020;SDS011;16861;52.294;7.760;2024-02-23T02:07:38;3.38;;;1.77;;
30020;SDS011;16861;52.294;7.760;2024-02-23T02:10:08;5.18;;;1.83;;
30020;SDS011;16861;52.294;7.760;2024-02-23T02:12:35;5.13;;;2.20;;
30020;SDS011;16861;52.294;7.760;2024-02-23T02:15:03;1.92;;;1.75;;
30020;SDS011;16861;52.294;7.760;2024-02-23T02:17:30;1.88;;;1.60;;
30020;SDS011;16861;52.294;7.760;2024-02-23T02:20:02;5.32;;;1.90;;
30020;SDS011;16861;52.294;7.760;2024-02-23T02:22:32;3.45;;;2.05;;
30020;SDS011;16861;52.294;7.760;2024-02-23T02:24:59;3.90;;;2.38;;
30020;SDS011;16861;52.294;7.760;2024-02-23T02:27:26;2.83;;;1.92;;
30020;SDS011;16861;52.294;7.760;2024-02-23T02:29:53;2.25;;;2.05;;
30020;SDS011;16861;52.294;7.760;2024-02-23T02:32:19;3.60;;;2.38;;
30020;SDS011;16861;52.294;7.760;2024-02-23T02:34:46;3.75;;;2.72;;
30020;SDS011;16861;52.294;7.760;2024-02-23T02:37:13;4.32;;;2.38;;
30020;SDS011;16861;52.294;7.760;2024-02-23T02:39:39;5.28;;;2.63;;
30020;SDS011;16861;52.294;7.760;2024-02-23T02:42:06;2.60;;;2.40;;
30020;SDS011;16861;52.294;7.760;2024-02-23T02:44:33;4.03;;;2.90;;
30020;SDS011;16861;52.294;7.760;2024-02-23T02:47:00;7.30;;;3.20;;
30020;SDS011;16861;52.294;7.760;2024-02-23T02:49:27;5.43;;;3.50;;
30020;SDS011;16861;52.294;7.760;2024-02-23T02:51:54;4.85;;;3.03;;
30020;SDS011;16861;52.294;7.760;2024-02-23T02:54:20;5.22;;;3.22;;
30020;SDS011;16861;52.294;7.760;2024-02-23T02:56:47;6.15;;;3.10;;
30020;SDS011;16861;52.294;7.760;2024-02-23T02:59:14;8.40;;;3.58;;
30020;SDS011;16861;52.294;7.760;2024-02-23T03:01:41;5.82;;;3.63;;
30020;SDS011;16861;52.294;7.760;2024-02-23T03:04:08;7.07;;;3.78;;
30020;SDS011;16861;52.294;7.760;2024-02-23T03:06:34;5.22;;;3.50;;
30020;SDS011;16861;52.294;7.760;2024-02-23T03:09:01;9.27;;;4.20;;
30020;SDS011;16861;52.294;7.760;2024-02-23T03:11:29;6.60;;;3.45;;
30020;SDS011;16861;52.294;7.760;2024-02-23T03:13:55;9.18;;;4.40;;
30020;SDS011;16861;52.294;7.760;2024-02-23T03:16:22;5.78;;;3.30;;
30020;SDS011;16861;52.294;7.760;2024-02-23T03:18:49;6.70;;;3.78;;
30020;SDS011;16861;52.294;7.760;2024-02-23T03:21:17;5.63;;;3.28;;
30020;SDS011;16861;52.294;7.760;2024-02-23T03:23:43;6.00;;;3.78;;
30020;SDS011;16861;52.294;7.760;2024-02-23T03:26:11;8.30;;;3.30;;
30020;SDS011;16861;52.294;7.760;2024-02-23T03:28:38;9.35;;;3.80;;
30020;SDS011;16861;52.294;7.760;2024-02-23T03:31:05;8.52;;;3.63;;
30020;SDS011;16861;52.294;7.760;2024-02-23T03:33:34;10.75;;;3.30;;
30020;SDS011;16861;52.294;7.760;2024-02-23T03:36:02;8.07;;;3.05;;
30020;SDS011;16861;52.294;7.760;2024-02-23T03:38:29;9.48;;;3.30;;
30020;SDS011;16861;52.294;7.760;2024-02-23T03:40:58;6.95;;;2.75;;
30020;SDS011;16861;52.294;7.760;2024-02-23T03:43:24;6.70;;;3.13;;
30020;SDS011;16861;52.294;7.760;2024-02-23T03:45:51;5.28;;;2.25;;
30020;SDS011;16861;52.294;7.760;2024-02-23T03:48:18;6.03;;;2.20;;
30020;SDS011;16861;52.294;7.760;2024-02-23T03:50:45;6.45;;;1.95;;
30020;SDS011;16861;52.294;7.760;2024-02-23T03:53:12;7.40;;;2.45;;
30020;SDS011;16861;52.294;7.760;2024-02-23T03:55:39;7.05;;;2.25;;
30020;SDS011;16861;52.294;7.760;2024-02-23T03:58:05;11.82;;;2.60;;
30020;SDS011;16861;52.294;7.760;2024-02-23T04:00:34;5.43;;;1.70;;
30020;SDS011;16861;52.294;7.760;2024-02-23T04:03:01;9.73;;;1.98;;
30020;SDS011;16861;52.294;7.760;2024-02-23T04:05:27;7.65;;;1.92;;
30020;SDS011;16861;52.294;7.760;2024-02-23T04:07:54;7.60;;;2.42;;
30020;SDS011;16861;52.294;7.760;2024-02-23T04:10:21;4.07;;;1.77;;
30020;SDS011;16861;52.294;7.760;2024-02-23T04:12:47;4.43;;;1.77;;
30020;SDS011;16861;52.294;7.760;2024-02-23T04:15:14;5.40;;;1.73;;
30020;SDS011;16861;52.294;7.760;2024-02-23T04:17:41;7.20;;;1.83;;
30020;SDS011;16861;52.294;7.760;2024-02-23T04:20:08;7.40;;;1.63;;
30020;SDS011;16861;52.294;7.760;2024-02-23T04:22:38;8.23;;;1.95;;
30020;SDS011;16861;52.294;7.760;2024-02-23T04:25:05;5.72;;;1.75;;
30020;SDS011;16861;52.294;7.760;2024-02-23T04:27:32;3.20;;;1.58;;
30020;SDS011;16861;52.294;7.760;2024-02-23T04:29:58;8.85;;;2.22;;
30020;SDS011;16861;52.294;7.760;2024-02-23T04:32:25;6.18;;;1.98;;
30020;SDS011;16861;52.294;7.760;2024-02-23T04:34:52;8.93;;;2.30;;
30020;SDS011;16861;52.294;7.760;2024-02-23T04:37:19;5.30;;;2.03;;
30020;SDS011;16861;52.294;7.760;2024-02-23T04:39:45;8.73;;;2.20;;
30020;SDS011;16861;52.294;7.760;2024-02-23T04:42:12;7.30;;;2.08;;
30020;SDS011;16861;52.294;7.760;2024-02-23T04:44:41;7.43;;;1.73;;
30020;SDS011;16861;52.294;7.760;2024-02-23T04:47:08;4.65;;;1.90;;
30020;SDS011;16861;52.294;7.760;2024-02-23T04:49:35;8.52;;;1.88;;
30020;SDS011;16861;52.294;7.760;2024-02-23T04:52:02;6.15;;;1.73;;
30020;SDS011;16861;52.294;7.760;2024-02-23T04:54:28;5.22;;;1.40;;
30020;SDS011;16861;52.294;7.760;2024-02-23T04:56:55;8.55;;;2.25;;
30020;SDS011;16861;52.294;7.760;2024-02-23T04:59:22;7.60;;;1.90;;
30020;SDS011;16861;52.294;7.760;2024-02-23T05:01:49;4.32;;;1.38;;
30020;SDS011;16861;52.294;7.760;2024-02-23T05:04:15;5.22;;;1.60;;
30020;SDS011;16861;52.294;7.760;2024-02-23T05:06:42;7.47;;;1.77;;
30020;SDS011;16861;52.294;7.760;2024-02-23T05:09:10;8.13;;;2.28;;
30020;SDS011;16861;52.294;7.760;2024-02-23T05:11:37;8.93;;;2.00;;
30020;SDS011;16861;52.294;7.760;2024-02-23T05:14:04;9.30;;;2.20;;
30020;SDS011;16861;52.294;7.760;2024-02-23T05:16:32;5.78;;;2.15;;
30020;SDS011;16861;52.294;7.760;2024-02-23T05:18:59;7.25;;;1.70;;
30020;SDS011;16861;52.294;7.760;2024-02-23T05:21:25;7.97;;;1.80;;
30020;SDS011;16861;52.294;7.760;2024-02-23T05:23:52;6.25;;;1.52;;
30020;SDS011;16861;52.294;7.760;2024-02-23T05:31:44;6.22;;;1.58;;
30020;SDS011;16861;52.294;7.760;2024-02-23T05:34:13;6.93;;;2.10;;
30020;SDS011;16861;52.294;7.760;2024-02-23T05:36:40;12.45;;;2.30;;
30020;SDS011;16861;52.294;7.760;2024-02-23T05:39:06;7.72;;;2.33;;
30020;SDS011;16861;52.294;7.760;2024-02-23T05:41:34;6.90;;;2.10;;
30020;SDS011;16861;52.294;7.760;2024-02-23T05:44:00;3.88;;;1.50;;
30020;SDS011;16861;52.294;7.760;2024-02-23T05:46:33;7.25;;;1.73;;
30020;SDS011;16861;52.294;7.760;2024-02-23T05:49:01;8.40;;;1.55;;
30020;SDS011;16861;52.294;7.760;2024-02-23T05:51:29;7.07;;;1.70;;
30020;SDS011;16861;52.294;7.760;2024-02-23T05:53:57;5.30;;;1.73;;
30020;SDS011;16861;52.294;7.760;2024-02-23T05:56:24;7.25;;;1.83;;
30020;SDS011;16861;52.294;7.760;2024-02-23T05:58:51;5.65;;;1.92;;
30020;SDS011;16861;52.294;7.760;2024-02-23T06:01:18;6.50;;;1.75;;
30020;SDS011;16861;52.294;7.760;2024-02-23T06:03:45;7.15;;;1.52;;
30020;SDS011;16861;52.294;7.760;2024-02-23T06:06:13;9.77;;;2.00;;
30020;SDS011;16861;52.294;7.760;2024-02-23T06:08:40;12.38;;;1.40;;
30020;SDS011;16861;52.294;7.760;2024-02-23T06:11:09;7.28;;;1.40;;
30020;SDS011;16861;52.294;7.760;2024-02-23T06:13:36;5.40;;;1.48;;
30020;SDS011;16861;52.294;7.760;2024-02-23T06:16:03;8.45;;;1.80;;
30020;SDS011;16861;52.294;7.760;2024-02-23T06:18:31;4.85;;;1.63;;
30020;SDS011;16861;52.294;7.760;2024-02-23T06:20:57;8.15;;;2.35;;
30020;SDS011;16861;52.294;7.760;2024-02-23T06:23:24;5.13;;;1.60;;
30020;SDS011;16861;52.294;7.760;2024-02-23T06:25:51;8.43;;;1.73;;
30020;SDS011;16861;52.294;7.760;2024-02-23T06:28:18;5.95;;;1.60;;
30020;SDS011;16861;52.294;7.760;2024-02-23T06:30:44;10.90;;;2.15;;
30020;SDS011;16861;52.294;7.760;2024-02-23T06:33:11;5.43;;;1.38;;
30020;SDS011;16861;52.294;7.760;2024-02-23T06:35:38;9.75;;;2.30;;
30020;SDS011;16861;52.294;7.760;2024-02-23T06:38:05;5.30;;;1.63;;
30020;SDS011;16861;52.294;7.760;2024-02-23T06:40:33;5.20;;;1.70;;
30020;SDS011;16861;52.294;7.760;2024-02-23T06:43:13;4.90;;;1.70;;
30020;SDS011;16861;52.294;7.760;2024-02-23T06:45:40;6.63;;;1.90;;
30020;SDS011;16861;52.294;7.760;2024-02-23T06:48:07;6.70;;;2.00;;
30020;SDS011;16861;52.294;7.760;2024-02-23T06:50:35;6.18;;;1.65;;
30020;SDS011;16861;52.294;7.760;2024-02-23T06:53:02;6.93;;;1.83;;
30020;SDS011;16861;52.294;7.760;2024-02-23T06:55:29;7.45;;;1.88;;
30020;SDS011;16861;52.294;7.760;2024-02-23T06:57:55;5.95;;;1.90;;
30020;SDS011;16861;52.294;7.760;2024-02-23T07:00:22;7.07;;;2.00;;
30020;SDS011;16861;52.294;7.760;2024-02-23T07:02:48;10.40;;;2.13;;
30020;SDS011;16861;52.294;7.760;2024-02-23T07:05:15;8.13;;;1.75;;
30020;SDS011;16861;52.294;7.760;2024-02-23T07:07:42;5.88;;;1.80;;
30020;SDS011;16861;52.294;7.760;2024-02-23T07:10:08;6.60;;;2.08;;
30020;SDS011;16861;52.294;7.760;2024-02-23T07:12:36;8.90;;;2.60;;
30020;SDS011;16861;52.294;7.760;2024-02-23T07:15:03;6.88;;;2.00;;
30020;SDS011;16861;52.294;7.760;2024-02-23T07:17:30;5.75;;;2.05;;
30020;SDS011;16861;52.294;7.760;2024-02-23T07:19:57;7.38;;;2.00;;
30020;SDS011;16861;52.294;7.760;2024-02-23T07:22:32;9.38;;;2.08;;
30020;SDS011;16861;52.294;7.760;2024-02-23T07:24:58;5.97;;;2.00;;
30020;SDS011;16861;52.294;7.760;2024-02-23T07:27:28;8.25;;;1.60;;
30020;SDS011;16861;52.294;7.760;2024-02-23T07:29:55;6.50;;;1.50;;
30020;SDS011;16861;52.294;7.760;2024-02-23T07:32:22;6.85;;;1.65;;
30020;SDS011;16861;52.294;7.760;2024-02-23T07:34:49;7.93;;;1.70;;
30020;SDS011;16861;52.294;7.760;2024-02-23T07:37:16;7.50;;;1.73;;
30020;SDS011;16861;52.294;7.760;2024-02-23T07:39:44;8.38;;;1.92;;
30020;SDS011;16861;52.294;7.760;2024-02-23T07:42:10;6.25;;;2.22;;
30020;SDS011;16861;52.294;7.760;2024-02-23T07:44:37;10.60;;;2.10;;
30020;SDS011;16861;52.294;7.760;2024-02-23T07:47:04;7.75;;;1.98;;
30020;SDS011;16861;52.294;7.760;2024-02-23T07:52:12;4.97;;;1.40;;
30020;SDS011;16861;52.294;7.760;2024-02-23T07:54:38;7.10;;;1.65;;
30020;SDS011;16861;52.294;7.760;2024-02-23T07:57:05;10.95;;;2.15;;
30020;SDS011;16861;52.294;7.760;2024-02-23T07:59:31;8.43;;;1.50;;
30020;SDS011;16861;52.294;7.760;2024-02-23T08:01:59;4.85;;;1.77;;
30020;SDS011;16861;52.294;7.760;2024-02-23T08:04:25;4.20;;;1.70;;
30020;SDS011;16861;52.294;7.760;2024-02-23T08:06:52;7.57;;;1.73;;
30020;SDS011;16861;52.294;7.760;2024-02-23T08:09:19;11.63;;;1.65;;
30020;SDS011;16861;52.294;7.760;2024-02-23T08:11:48;6.78;;;1.50;;
30020;SDS011;16861;52.294;7.760;2024-02-23T08:14:15;9.52;;;2.10;;
30020;SDS011;16861;52.294;7.760;2024-02-23T08:16:42;7.65;;;1.50;;
30020;SDS011;16861;52.294;7.760;2024-02-23T08:19:08;7.38;;;2.05;;
30020;SDS011;16861;52.294;7.760;2024-02-23T08:21:35;7.97;;;1.83;;
30020;SDS011;16861;52.294;7.760;2024-02-23T08:24:02;7.45;;;1.33;;
30020;SDS011;16861;52.294;7.760;2024-02-23T08:26:29;7.80;;;2.35;;
30020;SDS011;16861;52.294;7.760;2024-02-23T08:28:56;7.85;;;2.40;;
30020;SDS011;16861;52.294;7.760;2024-02-23T08:31:23;4.47;;;1.10;;
30020;SDS011;16861;52.294;7.760;2024-02-23T08:33:49;3.45;;;1.52;;
30020;SDS011;16861;52.294;7.760;2024-02-23T08:36:16;7.32;;;1.50;;
30020;SDS011;16861;52.294;7.760;2024-02-23T08:38:42;4.55;;;1.60;;
30020;SDS011;16861;52.294;7.760;2024-02-23T08:41:09;8.57;;;1.73;;
30020;SDS011;16861;52.294;7.760;2024-02-23T08:43:35;12.68;;;2.08;;
30020;SDS011;16861;52.294;7.760;2024-02-23T08:46:02;6.05;;;1.42;;
30020;SDS011;16861;52.294;7.760;2024-02-23T08:48:35;8.10;;;1.85;;
30020;SDS011;16861;52.294;7.760;2024-02-23T08:51:01;2.97;;;0.82;;
30020;SDS011;16861;52.294;7.760;2024-02-23T08:53:28;8.88;;;1.58;;
30020;SDS011;16861;52.294;7.760;2024-02-23T08:55:55;7.05;;;1.90;;
30020;SDS011;16861;52.294;7.760;2024-02-23T08:58:21;5.63;;;1.30;;
30020;SDS011;16861;52.294;7.760;2024-02-23T09:00:48;7.82;;;1.65;;
30020;SDS011;16861;52.294;7.760;2024-02-23T09:03:14;9.07;;;1.95;;
30020;SDS011;16861;52.294;7.760;2024-02-23T09:05:41;5.72;;;1.42;;
30020;SDS011;16861;52.294;7.760;2024-02-23T09:08:08;3.60;;;1.02;;
30020;SDS011;16861;52.294;7.760;2024-02-23T09:10:34;3.97;;;1.05;;
30020;SDS011;16861;52.294;7.760;2024-02-23T09:13:01;7.60;;;1.80;;
30020;SDS011;16861;52.294;7.760;2024-02-23T09:15:30;8.88;;;1.77;;
30020;SDS011;16861;52.294;7.760;2024-02-23T09:17:57;6.00;;;1.55;;
30020;SDS011;16861;52.294;7.760;2024-02-23T09:20:24;5.53;;;1.40;;
30020;SDS011;16861;52.294;7.760;2024-02-23T09:22:52;5.53;;;1.20;;
30020;SDS011;16861;52.294;7.760;2024-02-23T09:25:18;4.57;;;1.40;;
30020;SDS011;16861;52.294;7.760;2024-02-23T09:27:45;9.52;;;1.30;;
30020;SDS011;16861;52.294;7.760;2024-02-23T09:30:12;6.13;;;1.58;;
30020;SDS011;16861;52.294;7.760;2024-02-23T09:32:39;5.68;;;1.08;;
30020;SDS011;16861;52.294;7.760;2024-02-23T09:35:06;4.72;;;1.30;;
30020;SDS011;16861;52.294;7.760;2024-02-23T09:37:33;4.35;;;1.63;;
30020;SDS011;16861;52.294;7.760;2024-02-23T09:40:00;5.43;;;0.93;;
30020;SDS011;16861;52.294;7.760;2024-02-23T09:42:27;5.97;;;1.20;;
30020;SDS011;16861;52.294;7.760;2024-02-23T09:44:59;6.82;;;1.40;;
30020;SDS011;16861;52.294;7.760;2024-02-23T09:47:27;8.18;;;1.77;;
30020;SDS011;16861;52.294;7.760;2024-02-23T09:49:55;6.45;;;1.10;;
30020;SDS011;16861;52.294;7.760;2024-02-23T09:52:22;5.53;;;1.52;;
30020;SDS011;16861;52.294;7.760;2024-02-23T09:54:49;4.15;;;1.40;;
30020;SDS011;16861;52.294;7.760;2024-02-23T09:57:16;3.03;;;1.30;;
30020;SDS011;16861;52.294;7.760;2024-02-23T09:59:45;5.88;;;1.15;;
30020;SDS011;16861;52.294;7.760;2024-02-23T10:02:15;4.13;;;1.33;;
30020;SDS011;16861;52.294;7.760;2024-02-23T10:04:43;3.95;;;1.33;;
30020;SDS011;16861;52.294;7.760;2024-02-23T10:07:10;7.20;;;1.40;;
30020;SDS011;16861;52.294;7.760;2024-02-23T10:09:40;6.72;;;1.40;;
30020;SDS011;16861;52.294;7.760;2024-02-23T10:12:07;2.65;;;1.27;;
30020;SDS011;16861;52.294;7.760;2024-02-23T10:14:34;7.82;;;1.45;;
30020;SDS011;16861;52.294;7.760;2024-02-23T10:17:01;6.43;;;1.30;;
30020;SDS011;16861;52.294;7.760;2024-02-23T10:19:28;8.50;;;1.42;;
30020;SDS011;16861;52.294;7.760;2024-02-23T10:21:56;3.88;;;1.40;;
30020;SDS011;16861;52.294;7.760;2024-02-23T10:24:23;3.45;;;1.20;;
30020;SDS011;16861;52.294;7.760;2024-02-23T10:26:52;5.38;;;1.80;;
30020;SDS011;16861;52.294;7.760;2024-02-23T10:29:19;5.43;;;1.52;;
30020;SDS011;16861;52.294;7.760;2024-02-23T10:31:48;3.92;;;1.75;;
30020;SDS011;16861;52.294;7.760;2024-02-23T10:34:18;6.70;;;1.30;;
30020;SDS011;16861;52.294;7.760;2024-02-23T10:36:46;6.05;;;1.27;;
30020;SDS011;16861;52.294;7.760;2024-02-23T10:39:17;5.30;;;1.45;;
30020;SDS011;16861;52.294;7.760;2024-02-23T10:41:53;7.80;;;1.67;;
30020;SDS011;16861;52.294;7.760;2024-02-23T10:44:25;4.65;;;1.35;;
30020;SDS011;16861;52.294;7.760;2024-02-23T10:46:54;5.28;;;1.17;;
30020;SDS011;16861;52.294;7.760;2024-02-23T10:49:23;5.13;;;2.13;;
30020;SDS011;16861;52.294;7.760;2024-02-23T10:51:53;5.38;;;1.70;;
30020;SDS011;16861;52.294;7.760;2024-02-23T10:54:20;8.43;;;1.88;;
30020;SDS011;16861;52.294;7.760;2024-02-23T10:56:49;7.30;;;1.80;;
30020;SDS011;16861;52.294;7.760;2024-02-23T10:59:17;10.00;;;2.08;;
30020;SDS011;16861;52.294;7.760;2024-02-23T11:01:46;6.60;;;2.15;;
30020;SDS011;16861;52.294;7.760;2024-02-23T11:04:21;8.55;;;1.80;;
30020;SDS011;16861;52.294;7.760;2024-02-23T11:06:50;6.20;;;1.77;;
30020;SDS011;16861;52.294;7.760;2024-02-23T11:09:31;4.85;;;1.30;;
30020;SDS011;16861;52.294;7.760;2024-02-23T11:11:58;9.20;;;1.45;;
30020;SDS011;16861;52.294;7.760;2024-02-23T11:14:35;4.20;;;1.23;;
30020;SDS011;16861;52.294;7.760;2024-02-23T11:17:04;5.80;;;1.60;;
30020;SDS011;16861;52.294;7.760;2024-02-23T11:19:35;7.68;;;2.10;;
30020;SDS011;16861;52.294;7.760;2024-02-23T11:22:04;5.00;;;1.92;;
30020;SDS011;16861;52.294;7.760;2024-02-23T11:24:32;3.92;;;1.70;;
30020;SDS011;16861;52.294;7.760;2024-02-23T11:26:59;6.90;;;2.25;;
30020;SDS011;16861;52.294;7.760;2024-02-23T11:29:34;5.63;;;1.45;;
30020;SDS011;16861;52.294;7.760;2024-02-23T11:32:02;6.10;;;1.73;;
30020;SDS011;16861;52.294;7.760;2024-02-23T11:34:30;6.50;;;1.60;;
30020;SDS011;16861;52.294;7.760;2024-02-23T11:36:57;5.07;;;1.80;;
30020;SDS011;16861;52.294;7.760;2024-02-23T11:39:26;5.47;;;1.80;;
30020;SDS011;16861;52.294;7.760;2024-02-23T11:41:53;3.17;;;1.40;;
30020;SDS011;16861;52.294;7.760;2024-02-23T11:44:20;7.20;;;1.75;;
30020;SDS011;16861;52.294;7.760;2024-02-23T11:46:46;3.88;;;1.40;;
30020;SDS011;16861;52.294;7.760;2024-02-23T11:49:14;5.57;;;1.42;;
30020;SDS011;16861;52.294;7.760;2024-02-23T11:51:42;6.10;;;1.88;;
30020;SDS011;16861;52.294;7.760;2024-02-23T11:54:09;3.50;;;1.40;;
30020;SDS011;16861;52.294;7.760;2024-02-23T11:56:35;5.57;;;1.65;;
30020;SDS011;16861;52.294;7.760;2024-02-23T11:59:02;5.93;;;1.85;;
30020;SDS011;16861;52.294;7.760;2024-02-23T12:01:29;6.35;;;1.90;;
30020;SDS011;16861;52.294;7.760;2024-02-23T12:03:57;5.40;;;1.73;;
30020;SDS011;16861;52.294;7.760;2024-02-23T12:06:23;5.97;;;1.50;;
30020;SDS011;16861;52.294;7.760;2024-02-23T12:08:53;9.75;;;1.95;;
30020;SDS011;16861;52.294;7.760;2024-02-23T12:11:20;5.20;;;1.35;;
30020;SDS011;16861;52.294;7.760;2024-02-23T12:13:47;4.10;;;1.48;;
30020;SDS011;16861;52.294;7.760;2024-02-23T12:16:14;5.68;;;1.58;;
30020;SDS011;16861;52.294;7.760;2024-02-23T12:18:40;4.80;;;1.58;;
30020;SDS011;16861;52.294;7.760;2024-02-23T12:21:08;7.75;;;1.80;;
30020;SDS011;16861;52.294;7.760;2024-02-23T12:23:42;5.32;;;1.20;;
30020;SDS011;16861;52.294;7.760;2024-02-23T12:26:10;6.78;;;2.03;;
30020;SDS011;16861;52.294;7.760;2024-02-23T12:28:39;4.72;;;1.33;;
30020;SDS011;16861;52.294;7.760;2024-02-23T12:31:07;4.18;;;1.08;;
30020;SDS011;16861;52.294;7.760;2024-02-23T12:33:34;3.67;;;1.20;;
30020;SDS011;16861;52.294;7.760;2024-02-23T12:36:02;3.80;;;1.20;;
30020;SDS011;16861;52.294;7.760;2024-02-23T12:38:30;3.83;;;1.80;;
30020;SDS011;16861;52.294;7.760;2024-02-23T12:40:57;3.38;;;1.30;;
30020;SDS011;16861;52.294;7.760;2024-02-23T12:43:24;3.22;;;1.02;;
30020;SDS011;16861;52.294;7.760;2024-02-23T12:45:51;4.00;;;1.52;;
30020;SDS011;16861;52.294;7.760;2024-02-23T12:48:19;3.03;;;1.10;;
30020;SDS011;16861;52.294;7.760;2024-02-23T12:50:46;4.30;;;1.33;;
30020;SDS011;16861;52.294;7.760;2024-02-23T12:56:06;4.20;;;1.50;;
30020;SDS011;16861;52.294;7.760;2024-02-23T12:58:40;4.22;;;0.95;;
30020;SDS011;16861;52.294;7.760;2024-02-23T13:01:09;6.63;;;1.58;;
30020;SDS011;16861;52.294;7.760;2024-02-23T13:03:37;5.97;;;1.17;;
30020;SDS011;16861;52.294;7.760;2024-02-23T13:06:07;9.15;;;1.20;;
30020;SDS011;16861;52.294;7.760;2024-02-23T13:08:34;3.03;;;0.77;;
30020;SDS011;16861;52.294;7.760;2024-02-23T13:11:01;6.13;;;1.40;;
30020;SDS011;16861;52.294;7.760;2024-02-23T13:13:28;5.05;;;1.13;;
30020;SDS011;16861;52.294;7.760;2024-02-23T13:15:55;3.83;;;1.08;;
30020;SDS011;16861;52.294;7.760;2024-02-23T13:18:23;3.75;;;1.00;;
30020;SDS011;16861;52.294;7.760;2024-02-23T13:20:49;4.90;;;1.13;;
30020;SDS011;16861;52.294;7.760;2024-02-23T13:23:17;4.47;;;1.30;;
30020;SDS011;16861;52.294;7.760;2024-02-23T13:25:44;6.03;;;1.17;;
30020;SDS011;16861;52.294;7.760;2024-02-23T13:28:11;7.35;;;1.20;;
30020;SDS011;16861;52.294;7.760;2024-02-23T13:30:38;9.00;;;1.45;;
30020;SDS011;16861;52.294;7.760;2024-02-23T13:33:05;5.80;;;1.10;;
30020;SDS011;16861;52.294;7.760;2024-02-23T13:35:37;2.92;;;0.95;;
30020;SDS011;16861;52.294;7.760;2024-02-23T13:38:05;4.45;;;1.30;;
30020;SDS011;16861;52.294;7.760;2024-02-23T13:40:33;3.53;;;1.05;;
30020;SDS011;16861;52.294;7.760;2024-02-23T13:43:00;4.68;;;1.25;;
30020;SDS011;16861;52.294;7.760;2024-02-23T13:45:26;3.60;;;1.10;;
30020;SDS011;16861;52.294;7.760;2024-02-23T13:47:57;2.75;;;0.90;;
30020;SDS011;16861;52.294;7.760;2024-02-23T13:50:28;3.97;;;1.33;;
30020;SDS011;16861;52.294;7.760;2024-02-23T13:52:55;6.25;;;1.30;;
30020;SDS011;16861;52.294;7.760;2024-02-23T13:55:22;4.68;;;1.10;;
30020;SDS011;16861;52.294;7.760;2024-02-23T13:57:49;2.53;;;1.00;;
30020;SDS011;16861;52.294;7.760;2024-02-23T14:00:16;3.60;;;1.27;;
30020;SDS011;16861;52.294;7.760;2024-02-23T14:02:45;3.25;;;1.08;;
30020;SDS011;16861;52.294;7.760;2024-02-23T14:05:12;4.28;;;0.90;;
30020;SDS011;16861;52.294;7.760;2024-02-23T14:07:39;4.13;;;1.15;;
30020;SDS011;16861;52.294;7.760;2024-02-23T14:10:06;7.55;;;1.45;;
30020;SDS011;16861;52.294;7.760;2024-02-23T14:12:34;4.47;;;0.90;;
30020;SDS011;16861;52.294;7.760;2024-02-23T14:15:01;7.68;;;1.42;;
30020;SDS011;16861;52.294;7.760;2024-02-23T14:17:27;3.58;;;1.13;;
30020;SDS011;16861;52.294;7.760;2024-02-23T14:19:54;2.80;;;1.17;;
30020;SDS011;16861;52.294;7.760;2024-02-23T14:22:21;3.83;;;1.10;;
30020;SDS011;16861;52.294;7.760;2024-02-23T14:24:48;5.57;;;1.58;;
30020;SDS011;16861;52.294;7.760;2024-02-23T14:27:14;4.50;;;1.42;;
30020;SDS011;16861;52.294;7.760;2024-02-23T14:29:41;4.70;;;1.52;;
30020;SDS011;16861;52.294;7.760;2024-02-23T14:32:07;6.20;;;1.40;;
30020;SDS011;16861;52.294;7.760;2024-02-23T14:34:34;3.35;;;1.02;;
30020;SDS011;16861;52.294;7.760;2024-02-23T14:37:01;4.57;;;1.42;;
30020;SDS011;16861;52.294;7.760;2024-02-23T14:39:28;2.10;;;0.80;;
30020;SDS011;16861;52.294;7.760;2024-02-23T14:41:54;3.10;;;1.23;;
30020;SDS011;16861;52.294;7.760;2024-02-23T14:44:22;3.90;;;1.00;;
30020;SDS011;16861;52.294;7.760;2024-02-23T14:46:48;4.32;;;1.20;;
30020;SDS011;16861;52.294;7.760;2024-02-23T14:49:15;3.00;;;1.10;;
30020;SDS011;16861;52.294;7.760;2024-02-23T14:51:42;3.90;;;1.20;;
30020;SDS011;16861;52.294;7.760;2024-02-23T14:54:09;5.63;;;1.40;;
30020;SDS011;16861;52.294;7.760;2024-02-23T14:56:36;4.78;;;1.20;;
30020;SDS011;16861;52.294;7.760;2024-02-23T14:59:03;5.60;;;1.23;;
30020;SDS011;16861;52.294;7.760;2024-02-23T15:01:33;9.18;;;1.25;;